x

Diamond Shoals (41025) Wave Buoy

3:50pm - Sun 26th Mar 2017 All times are EDT. -4 hours from GMT.

  • Sig Wave height 3.0ft
  • Swell Direction
  • Peak Period 8s
  • Average Period 5s
  • Wind
    7mph, 9mph gusts
  • Sea Temp 75°f
  • 空気 Temp 70°f
  • Sea Pressure 1023.5mb
  • Diamond Shoals
  • Diamond Shoals

More Historic Weather Station data

Upgrade to MSW Pro to gain access to the past 30 days of data for over 8000 Wavebouys and Weather Stations around the globe.

Join Pro

Comparision Forecast

View Surf forecast
   
Sun 03/26 3:50pm 3ft 8s 5s 7 9 mph 1023.5mb 75f 70f
2:50pm 3ft 8s 5s 9 11 mph 1024mb 75f 70f
12:50pm 3ft 8s 5s 9 11 mph 1025.3mb 74f 70f
11:50am 3ft 8s 5s 11 13 mph 1025.8mb 74f 69f
10:50am 3ft 8s 5s 11 16 mph 1026mb 74f 69f
9:50am 3ft 8s 5s 13 16 mph 1025.9mb 75f 69f
8:50am 3ft 8s 5s 11 13 mph 1025.8mb 75f 69f
7:50am 3ft 9s 5s 16 18 mph 1025.3mb 75f 68f
6:50am 3ft 8s 5s 16 20 mph 1024.4mb 75f 68f
5:50am 2.5ft 5s 4s 13 18 mph 1024mb 75f 68f
4:50am 2.5ft 5s 4s 16 20 mph 1023.7mb 75f 68f
3:50am 3ft 5s 4s 18 20 mph 1023.7mb 76f 69f
2:50am 2.5ft 7s 4s 18 22 mph 1024.2mb 76f 69f
1:50am 3ft 5s 4s 18 22 mph 1024.7mb 76f 69f
12:50am 3ft 5s 4s 18 20 mph 1024.9mb 76f 69f
Sat 03/25 11:50pm 3.5ft 5s 4s 18 22 mph 1025.2mb 76f 69f
10:50pm 3.5ft 5s 4s 16 20 mph 1025.5mb 76f 69f
9:50pm 3.5ft 5s 4s 18 22 mph 1025.3mb 76f 70f
8:50pm 3.5ft 5s 4s 20 25 mph 1025.2mb 76f 70f
7:50pm 3ft 5s 4s 18 22 mph 1025.1mb 77f 71f
6:50pm 3ft 5s 4s 18 22 mph 1024.9mb 77f 70f
5:50pm 3ft 5s 4s 18 20 mph 1024.9mb 77f 70f
4:50pm 2.5ft 5s 4s 18 20 mph 1025.2mb 77f 70f
3:50pm 3ft 5s 4s 18 20 mph 1025.4mb 77f 71f
2:50pm 3ft 5s 4s 18 22 mph 1026mb 77f 71f
1:50pm 2.5ft 10s 5s 20 22 mph 1026.6mb 77f 70f
12:50pm 2.5ft 8s 5s 16 20 mph 1027.3mb 76f 69f
11:50am 3ft 6s 4s 16 20 mph 1028mb 76f 69f
10:50am 3.5ft 5s 4s 16 20 mph 1028.5mb 76f 69f
9:50am 3ft 5s 4s 18 20 mph 1028.3mb 76f 68f
8:50am 3.5ft 5s 4s 16 20 mph 1028.1mb 76f 69f
7:50am 3.5ft 5s 4s 16 20 mph 1027.1mb 76f 69f
6:50am 4.5ft 5s 4s 16 18 mph 1026.8mb 76f 69f
5:50am 4.5ft 5s 4s 20 25 mph 1026.9mb 76f 69f
4:50am 4.5ft 5s 4s 22 27 mph 1027mb 76f 69f
3:50am 4.5ft 4s 4s 20 27 mph 1027.3mb 76f 68f
2:50am 4.5ft 4s 4s 22 27 mph 1027.7mb 76f 68f
1:50am 4ft 4s 4s 25 29 mph 1027.9mb 76f 67f
12:50am 4ft 11s 4s 22 27 mph 1028.6mb 75f 67f
Fri 03/24 11:50pm 4.5ft 11s 4s 22 29 mph 1028.6mb 75f 67f
10:50pm 4ft 10s 4s 22 27 mph 1028.8mb 75f 67f
9:50pm 4ft 10s 5s 22 27 mph 1029mb 74f 66f
8:50pm 3.5ft 9s 5s 22 27 mph 1029.1mb 74f 66f
7:50pm 3.5ft 10s 5s 18 22 mph 1029.5mb 74f 66f
6:50pm 4ft 8s 6s 18 22 mph 1029.8mb 74f 65f
5:50pm 4ft 10s 6s 18 22 mph 1030mb 74f 66f
4:50pm 3.5ft 10s 6s 18 25 mph 1030.5mb 74f 65f
3:50pm 4.5ft 10s 7s 18 25 mph 1030.7mb 75f 65f
2:50pm 4ft 10s 7s 13 20 mph 1031.6mb 75f 64f
1:50pm 4.5ft 10s 7s 16 20 mph 1032.9mb 75f 64f
12:50pm 4.5ft 9s 7s 16 22 mph 1033.6mb 75f 63f
11:50am 5ft 9s 7s 16 22 mph 1034.1mb 75f 62f
10:50am 4.5ft 8s 7s 16 18 mph 1034.3mb 75f 61f
9:50am 5ft 10s 7s 16 22 mph 1034.3mb 75f 60f
8:50am 5.5ft 9s 8s 16 20 mph 1034.1mb 75f 59f
7:50am 5ft 10s 7s 11 16 mph 1034.3mb 75f 58f
6:50am 5.5ft 11s 8s 11 18 mph 1034.1mb 74f 58f
5:50am 6ft 10s 8s 11 16 mph 1033.6mb 74f 57f
4:50am 6.5ft 11s 8s 11 16 mph 1033.5mb 74f 57f
3:50am 7ft 10s 8s 7 13 mph 1033.5mb 74f 56f
2:50am 7ft 11s 8s 11 18 mph 1034.2mb 74f 55f
1:50am 6ft 11s 8s 7 11 mph 1035.1mb 71f 54f
12:50am 7ft 10s 8s 11 18 mph 1035mb 71f 53f
Thu 03/23 11:50pm 8ft 11s 8s 11 18 mph 1035.1mb 71f 52f
10:50pm 7.5ft 11s 8s 9 16 mph 1035.3mb 71f 51f
9:50pm 9ft 11s 9s 9 16 mph 1035.5mb 72f 50f
8:50pm 8ft 11s 8s 11 16 mph 1035.4mb 73f 49f
7:50pm 9.5ft 11s 9s 13 20 mph 1034.9mb 73f 47f
6:50pm 9ft 11s 8s 16 20 mph 1035mb 73f 47f
5:50pm 10ft 11s 8s 18 25 mph 1034.7mb 73f 47f
4:50pm 9ft 10s 8s 18 25 mph 1034.8mb 74f 46f
3:50pm 9ft 11s 8s 18 25 mph 1034.7mb 74f 46f
2:50pm 9ft 11s 8s 18 25 mph 1035mb 74f 46f
1:50pm 9ft 11s 8s 22 27 mph 1035.4mb 73f 46f
12:50pm 9ft 11s 8s 20 27 mph 1035.5mb 74f 46f
11:50am 9ft 11s 8s 20 29 mph 1035.7mb 73f 45f
10:50am 8.5ft 11s 8s 22 31 mph 1035.7mb 72f 45f
9:50am 9ft 9s 8s 22 31 mph 1034.9mb 72f 45f
8:50am 11ft 11s 8s 22 31 mph 1034mb 75f 46f
7:50am 13ft 11s 9s 25 31 mph 1033.1mb 75f 45f
6:50am 11ft 10s 8s 25 34 mph 1032.1mb 75f 46f
5:50am 11ft 11s 8s 27 34 mph 1031.2mb 75f 45f
4:50am 10ft 11s 8s 22 29 mph 1030.6mb 75f 46f
3:50am 10ft 9s 7s 25 31 mph 1029.9mb 74f 46f
2:50am 10ft 11s 8s 27 31 mph 1029.9mb 75f 46f
1:50am 9ft 10s 8s 25 31 mph 1030mb 74f 47f
12:50am 10ft 11s 8s 25 34 mph 1029.8mb 75f 47f
Wed 03/22 11:50pm 11ft 11s 8s 22 29 mph 1029.8mb 74f 47f
10:50pm 10.5ft 11s 8s 25 31 mph 1028.9mb 74f 48f
9:50pm 11ft 11s 8s 25 34 mph 1028.2mb 75f 47f
8:50pm 11ft 11s 8s 27 34 mph 1026.9mb 75f 47f